sensor_id;sensor_type;location;lat;lon;timestamp;temperature;humidity
24402;DHT22;12539;48.808;11.292;2022-08-21T00:00:14;19.90;99.90
24402;DHT22;12539;48.808;11.292;2022-08-21T00:02:56;19.90;99.90
24402;DHT22;12539;48.808;11.292;2022-08-21T00:05:23;20.00;99.90
24402;DHT22;12539;48.808;11.292;2022-08-21T00:07:50;20.00;99.90
24402;DHT22;12539;48.808;11.292;2022-08-21T00:10:16;20.00;99.90
24402;DHT22;12539;48.808;11.292;2022-08-21T00:12:43;20.10;99.90
24402;DHT22;12539;48.808;11.292;2022-08-21T00:15:14;20.10;99.90
24402;DHT22;12539;48.808;11.292;2022-08-21T00:17:40;20.10;99.90
24402;DHT22;12539;48.808;11.292;2022-08-21T00:20:09;20.10;99.90
24402;DHT22;12539;48.808;11.292;2022-08-21T00:22:35;20.00;99.90
24402;DHT22;12539;48.808;11.292;2022-08-21T00:25:03;20.00;99.90
24402;DHT22;12539;48.808;11.292;2022-08-21T00:27:28;19.90;99.90
24402;DHT22;12539;48.808;11.292;2022-08-21T00:29:54;19.90;99.90
24402;DHT22;12539;48.808;11.292;2022-08-21T00:32:26;19.80;99.90
24402;DHT22;12539;48.808;11.292;2022-08-21T00:34:52;19.80;99.90
24402;DHT22;12539;48.808;11.292;2022-08-21T00:37:18;19.70;99.90
24402;DHT22;12539;48.808;11.292;2022-08-21T00:39:44;19.60;99.90
24402;DHT22;12539;48.808;11.292;2022-08-21T00:42:11;19.50;99.90
24402;DHT22;12539;48.808;11.292;2022-08-21T00:44:42;19.30;99.90
24402;DHT22;12539;48.808;11.292;2022-08-21T00:47:10;19.20;99.90
24402;DHT22;12539;48.808;11.292;2022-08-21T00:49:36;19.00;99.90
24402;DHT22;12539;48.808;11.292;2022-08-21T00:52:05;19.00;99.90
24402;DHT22;12539;48.808;11.292;2022-08-21T00:54:32;18.90;99.90
24402;DHT22;12539;48.808;11.292;2022-08-21T00:57:02;18.80;99.90
24402;DHT22;12539;48.808;11.292;2022-08-21T00:59:33;18.70;99.90
24402;DHT22;12539;48.808;11.292;2022-08-21T01:02:00;18.60;99.90
24402;DHT22;12539;48.808;11.292;2022-08-21T01:04:26;18.50;99.90
24402;DHT22;12539;48.808;11.292;2022-08-21T01:06:52;18.60;99.90
24402;DHT22;12539;48.808;11.292;2022-08-21T01:09:18;18.70;99.90
24402;DHT22;12539;48.808;11.292;2022-08-21T01:11:44;18.70;99.90
24402;DHT22;12539;48.808;11.292;2022-08-21T01:14:12;18.80;99.90
24402;DHT22;12539;48.808;11.292;2022-08-21T01:16:40;18.90;99.90
24402;DHT22;12539;48.808;11.292;2022-08-21T01:19:08;19.00;99.90
24402;DHT22;12539;48.808;11.292;2022-08-21T01:21:34;19.00;99.90
24402;DHT22;12539;48.808;11.292;2022-08-21T01:24:00;19.10;99.90
24402;DHT22;12539;48.808;11.292;2022-08-21T01:26:30;19.20;99.90
24402;DHT22;12539;48.808;11.292;2022-08-21T01:29:05;19.20;99.90
24402;DHT22;12539;48.808;11.292;2022-08-21T01:31:33;19.30;99.90
24402;DHT22;12539;48.808;11.292;2022-08-21T01:33:59;19.20;99.90
24402;DHT22;12539;48.808;11.292;2022-08-21T01:36:26;19.20;99.90
24402;DHT22;12539;48.808;11.292;2022-08-21T01:38:52;19.20;99.90
24402;DHT22;12539;48.808;11.292;2022-08-21T01:41:17;19.20;99.90
24402;DHT22;12539;48.808;11.292;2022-08-21T01:43:44;19.10;99.90
24402;DHT22;12539;48.808;11.292;2022-08-21T01:46:11;19.10;99.90
24402;DHT22;12539;48.808;11.292;2022-08-21T01:48:37;19.10;99.90
24402;DHT22;12539;48.808;11.292;2022-08-21T01:51:05;19.10;99.90
24402;DHT22;12539;48.808;11.292;2022-08-21T01:53:31;19.10;99.90
24402;DHT22;12539;48.808;11.292;2022-08-21T01:55:59;19.10;99.90
24402;DHT22;12539;48.808;11.292;2022-08-21T01:58:25;19.10;99.90
24402;DHT22;12539;48.808;11.292;2022-08-21T02:00:51;19.10;99.90
24402;DHT22;12539;48.808;11.292;2022-08-21T02:03:17;19.10;99.90
24402;DHT22;12539;48.808;11.292;2022-08-21T02:05:42;19.00;99.90
24402;DHT22;12539;48.808;11.292;2022-08-21T02:08:08;19.00;99.90
24402;DHT22;12539;48.808;11.292;2022-08-21T02:10:34;19.00;99.90
24402;DHT22;12539;48.808;11.292;2022-08-21T02:13:00;18.90;99.90
24402;DHT22;12539;48.808;11.292;2022-08-21T02:15:26;18.90;99.90
24402;DHT22;12539;48.808;11.292;2022-08-21T02:17:55;18.90;99.90
24402;DHT22;12539;48.808;11.292;2022-08-21T02:20:35;18.90;99.90
24402;DHT22;12539;48.808;11.292;2022-08-21T02:23:02;18.90;99.90
24402;DHT22;12539;48.808;11.292;2022-08-21T02:25:28;18.90;99.90
24402;DHT22;12539;48.808;11.292;2022-08-21T02:27:56;18.90;99.90
24402;DHT22;12539;48.808;11.292;2022-08-21T02:30:29;18.80;99.90
24402;DHT22;12539;48.808;11.292;2022-08-21T02:32:56;18.70;99.90
24402;DHT22;12539;48.808;11.292;2022-08-21T02:35:23;18.60;99.90
24402;DHT22;12539;48.808;11.292;2022-08-21T02:37:52;18.40;99.90
24402;DHT22;12539;48.808;11.292;2022-08-21T02:40:22;18.40;99.90
24402;DHT22;12539;48.808;11.292;2022-08-21T02:42:48;18.30;99.90
24402;DHT22;12539;48.808;11.292;2022-08-21T02:45:15;18.30;99.90
24402;DHT22;12539;48.808;11.292;2022-08-21T02:48:03;18.30;99.90
24402;DHT22;12539;48.808;11.292;2022-08-21T02:50:36;18.30;99.90
24402;DHT22;12539;48.808;11.292;2022-08-21T02:53:02;18.30;99.90
24402;DHT22;12539;48.808;11.292;2022-08-21T02:55:30;18.30;99.90
24402;DHT22;12539;48.808;11.292;2022-08-21T02:57:57;18.30;99.90
24402;DHT22;12539;48.808;11.292;2022-08-21T03:00:25;18.30;99.90
24402;DHT22;12539;48.808;11.292;2022-08-21T03:02:52;18.40;99.90
24402;DHT22;12539;48.808;11.292;2022-08-21T03:05:19;18.40;99.90
24402;DHT22;12539;48.808;11.292;2022-08-21T03:07:46;18.40;99.90
24402;DHT22;12539;48.808;11.292;2022-08-21T03:10:13;18.40;99.90
24402;DHT22;12539;48.808;11.292;2022-08-21T03:12:39;18.50;99.90
24402;DHT22;12539;48.808;11.292;2022-08-21T03:15:08;18.50;99.90
24402;DHT22;12539;48.808;11.292;2022-08-21T03:17:34;18.50;99.90
24402;DHT22;12539;48.808;11.292;2022-08-21T03:20:00;18.50;99.90
24402;DHT22;12539;48.808;11.292;2022-08-21T03:22:29;18.40;99.90
24402;DHT22;12539;48.808;11.292;2022-08-21T03:24:54;18.30;99.90
24402;DHT22;12539;48.808;11.292;2022-08-21T03:27:20;18.30;99.90
24402;DHT22;12539;48.808;11.292;2022-08-21T03:29:46;18.30;99.90
24402;DHT22;12539;48.808;11.292;2022-08-21T03:32:11;18.30;99.90
24402;DHT22;12539;48.808;11.292;2022-08-21T03:34:38;18.40;99.90
24402;DHT22;12539;48.808;11.292;2022-08-21T03:37:05;18.40;99.90
24402;DHT22;12539;48.808;11.292;2022-08-21T03:39:31;18.40;99.90
24402;DHT22;12539;48.808;11.292;2022-08-21T03:41:57;18.50;99.90
24402;DHT22;12539;48.808;11.292;2022-08-21T03:44:23;18.50;99.90
24402;DHT22;12539;48.808;11.292;2022-08-21T03:46:53;18.40;99.90
24402;DHT22;12539;48.808;11.292;2022-08-21T03:49:19;18.40;99.90
24402;DHT22;12539;48.808;11.292;2022-08-21T03:51:45;18.30;99.90
24402;DHT22;12539;48.808;11.292;2022-08-21T03:54:10;18.20;99.90
24402;DHT22;12539;48.808;11.292;2022-08-21T03:56:36;18.20;99.90
24402;DHT22;12539;48.808;11.292;2022-08-21T03:59:02;18.10;99.90
24402;DHT22;12539;48.808;11.292;2022-08-21T04:01:29;18.00;99.90
24402;DHT22;12539;48.808;11.292;2022-08-21T04:03:55;18.00;99.90
24402;DHT22;12539;48.808;11.292;2022-08-21T04:06:20;17.90;99.90
24402;DHT22;12539;48.808;11.292;2022-08-21T04:08:46;17.80;99.90
24402;DHT22;12539;48.808;11.292;2022-08-21T04:11:12;17.70;99.90
24402;DHT22;12539;48.808;11.292;2022-08-21T04:13:38;17.60;99.90
24402;DHT22;12539;48.808;11.292;2022-08-21T04:16:04;17.60;99.90
24402;DHT22;12539;48.808;11.292;2022-08-21T04:18:30;17.50;99.90
24402;DHT22;12539;48.808;11.292;2022-08-21T04:20:57;17.50;99.90
24402;DHT22;12539;48.808;11.292;2022-08-21T04:23:24;17.40;99.90
24402;DHT22;12539;48.808;11.292;2022-08-21T04:25:50;17.40;99.90
24402;DHT22;12539;48.808;11.292;2022-08-21T04:28:16;17.40;99.90
24402;DHT22;12539;48.808;11.292;2022-08-21T04:30:42;17.40;99.90
24402;DHT22;12539;48.808;11.292;2022-08-21T04:33:07;17.50;99.90
24402;DHT22;12539;48.808;11.292;2022-08-21T04:35:33;17.60;99.90
24402;DHT22;12539;48.808;11.292;2022-08-21T04:37:59;17.70;99.90
24402;DHT22;12539;48.808;11.292;2022-08-21T04:40:27;17.70;99.90
24402;DHT22;12539;48.808;11.292;2022-08-21T04:43:01;17.90;99.90
24402;DHT22;12539;48.808;11.292;2022-08-21T04:45:31;18.00;99.90
24402;DHT22;12539;48.808;11.292;2022-08-21T04:47:59;18.10;99.90
24402;DHT22;12539;48.808;11.292;2022-08-21T04:53:18;18.20;99.90
24402;DHT22;12539;48.808;11.292;2022-08-21T04:55:45;18.30;99.90
24402;DHT22;12539;48.808;11.292;2022-08-21T04:58:15;18.30;99.90
24402;DHT22;12539;48.808;11.292;2022-08-21T05:00:46;18.40;99.90
24402;DHT22;12539;48.808;11.292;2022-08-21T05:03:12;18.50;99.90
24402;DHT22;12539;48.808;11.292;2022-08-21T05:05:40;18.50;99.90
24402;DHT22;12539;48.808;11.292;2022-08-21T05:08:07;18.50;99.90
24402;DHT22;12539;48.808;11.292;2022-08-21T05:10:33;18.50;99.90
24402;DHT22;12539;48.808;11.292;2022-08-21T05:13:00;18.60;99.90
24402;DHT22;12539;48.808;11.292;2022-08-21T05:15:26;18.60;99.90
24402;DHT22;12539;48.808;11.292;2022-08-21T05:17:52;18.70;99.90
24402;DHT22;12539;48.808;11.292;2022-08-21T05:20:19;18.80;99.90
24402;DHT22;12539;48.808;11.292;2022-08-21T05:22:45;18.80;99.90
24402;DHT22;12539;48.808;11.292;2022-08-21T05:25:11;18.90;99.90
24402;DHT22;12539;48.808;11.292;2022-08-21T05:27:38;18.90;99.90
24402;DHT22;12539;48.808;11.292;2022-08-21T05:30:08;18.90;99.90
24402;DHT22;12539;48.808;11.292;2022-08-21T05:32:35;19.00;99.90
24402;DHT22;12539;48.808;11.292;2022-08-21T05:35:02;19.00;99.90
24402;DHT22;12539;48.808;11.292;2022-08-21T05:37:28;19.10;99.90
24402;DHT22;12539;48.808;11.292;2022-08-21T05:39:53;19.20;99.90
24402;DHT22;12539;48.808;11.292;2022-08-21T05:42:19;19.20;99.90
24402;DHT22;12539;48.808;11.292;2022-08-21T05:44:45;19.30;99.90
24402;DHT22;12539;48.808;11.292;2022-08-21T05:47:11;19.30;99.90
24402;DHT22;12539;48.808;11.292;2022-08-21T05:49:37;19.40;99.90
24402;DHT22;12539;48.808;11.292;2022-08-21T05:52:03;19.50;99.90
24402;DHT22;12539;48.808;11.292;2022-08-21T05:54:30;19.50;99.90
24402;DHT22;12539;48.808;11.292;2022-08-21T05:56:56;19.50;99.90
24402;DHT22;12539;48.808;11.292;2022-08-21T05:59:22;19.60;99.90
24402;DHT22;12539;48.808;11.292;2022-08-21T06:01:48;19.60;99.90
24402;DHT22;12539;48.808;11.292;2022-08-21T06:04:14;19.70;99.90
24402;DHT22;12539;48.808;11.292;2022-08-21T06:06:40;19.70;99.90
24402;DHT22;12539;48.808;11.292;2022-08-21T06:09:06;19.80;99.90
24402;DHT22;12539;48.808;11.292;2022-08-21T06:11:32;19.80;99.90
24402;DHT22;12539;48.808;11.292;2022-08-21T06:13:58;19.90;99.90
24402;DHT22;12539;48.808;11.292;2022-08-21T06:16:27;20.10;99.90
24402;DHT22;12539;48.808;11.292;2022-08-21T06:18:53;20.40;99.90
24402;DHT22;12539;48.808;11.292;2022-08-21T06:21:18;20.60;99.90
24402;DHT22;12539;48.808;11.292;2022-08-21T06:23:44;21.00;99.90
24402;DHT22;12539;48.808;11.292;2022-08-21T06:26:12;21.50;99.90
24402;DHT22;12539;48.808;11.292;2022-08-21T06:28:39;22.10;99.90
24402;DHT22;12539;48.808;11.292;2022-08-21T06:31:19;23.10;99.90
24402;DHT22;12539;48.808;11.292;2022-08-21T06:33:45;24.40;99.90
24402;DHT22;12539;48.808;11.292;2022-08-21T06:36:12;25.10;99.90
24402;DHT22;12539;48.808;11.292;2022-08-21T06:38:38;25.00;99.90
24402;DHT22;12539;48.808;11.292;2022-08-21T06:41:04;24.40;99.90
24402;DHT22;12539;48.808;11.292;2022-08-21T06:43:30;24.00;99.90
24402;DHT22;12539;48.808;11.292;2022-08-21T06:45:56;23.70;99.90
24402;DHT22;12539;48.808;11.292;2022-08-21T06:48:22;23.70;99.90
24402;DHT22;12539;48.808;11.292;2022-08-21T06:50:48;24.30;99.90
24402;DHT22;12539;48.808;11.292;2022-08-21T06:53:17;25.20;97.90
24402;DHT22;12539;48.808;11.292;2022-08-21T06:55:43;25.60;95.20
24402;DHT22;12539;48.808;11.292;2022-08-21T06:58:09;25.10;94.60
24402;DHT22;12539;48.808;11.292;2022-08-21T07:00:39;24.50;94.50
24402;DHT22;12539;48.808;11.292;2022-08-21T07:03:05;24.00;94.70
24402;DHT22;12539;48.808;11.292;2022-08-21T07:05:30;23.50;95.70
24402;DHT22;12539;48.808;11.292;2022-08-21T07:07:57;23.30;95.90
24402;DHT22;12539;48.808;11.292;2022-08-21T07:10:26;23.00;96.10
24402;DHT22;12539;48.808;11.292;2022-08-21T07:12:52;22.80;97.00
24402;DHT22;12539;48.808;11.292;2022-08-21T07:15:19;22.70;97.60
24402;DHT22;12539;48.808;11.292;2022-08-21T07:17:45;22.60;97.60
24402;DHT22;12539;48.808;11.292;2022-08-21T07:20:11;22.60;97.40
24402;DHT22;12539;48.808;11.292;2022-08-21T07:22:38;22.70;97.20
24402;DHT22;12539;48.808;11.292;2022-08-21T07:25:06;22.70;97.20
24402;DHT22;12539;48.808;11.292;2022-08-21T07:27:32;22.70;97.20
24402;DHT22;12539;48.808;11.292;2022-08-21T07:29:58;22.90;97.10
24402;DHT22;12539;48.808;11.292;2022-08-21T07:32:24;23.00;96.50
24402;DHT22;12539;48.808;11.292;2022-08-21T07:34:50;23.10;96.00
24402;DHT22;12539;48.808;11.292;2022-08-21T07:37:16;23.20;95.70
24402;DHT22;12539;48.808;11.292;2022-08-21T07:39:41;23.20;95.40
24402;DHT22;12539;48.808;11.292;2022-08-21T07:42:07;23.20;95.30
24402;DHT22;12539;48.808;11.292;2022-08-21T07:44:33;23.30;95.40
24402;DHT22;12539;48.808;11.292;2022-08-21T07:47:00;23.40;95.00
24402;DHT22;12539;48.808;11.292;2022-08-21T07:49:27;23.50;94.50
24402;DHT22;12539;48.808;11.292;2022-08-21T07:51:53;23.60;94.00
24402;DHT22;12539;48.808;11.292;2022-08-21T07:54:18;23.50;93.90
24402;DHT22;12539;48.808;11.292;2022-08-21T07:56:44;23.50;93.90
24402;DHT22;12539;48.808;11.292;2022-08-21T07:59:11;23.50;93.90
24402;DHT22;12539;48.808;11.292;2022-08-21T08:01:36;23.50;93.70
24402;DHT22;12539;48.808;11.292;2022-08-21T08:04:02;23.50;93.40
24402;DHT22;12539;48.808;11.292;2022-08-21T08:06:29;23.50;93.30
24402;DHT22;12539;48.808;11.292;2022-08-21T08:08:55;23.50;93.40
24402;DHT22;12539;48.808;11.292;2022-08-21T08:11:21;23.60;93.60
24402;DHT22;12539;48.808;11.292;2022-08-21T08:13:50;23.60;93.50
24402;DHT22;12539;48.808;11.292;2022-08-21T08:16:16;23.70;93.70
24402;DHT22;12539;48.808;11.292;2022-08-21T08:18:42;23.70;93.30
24402;DHT22;12539;48.808;11.292;2022-08-21T08:21:09;23.60;93.20
24402;DHT22;12539;48.808;11.292;2022-08-21T08:23:35;23.60;93.20
24402;DHT22;12539;48.808;11.292;2022-08-21T08:26:01;23.60;93.10
24402;DHT22;12539;48.808;11.292;2022-08-21T08:28:32;23.50;93.30
24402;DHT22;12539;48.808;11.292;2022-08-21T08:30:59;23.40;93.40
24402;DHT22;12539;48.808;11.292;2022-08-21T08:33:25;23.40;93.50
24402;DHT22;12539;48.808;11.292;2022-08-21T08:35:51;23.40;93.70
24402;DHT22;12539;48.808;11.292;2022-08-21T08:38:22;23.40;94.00
24402;DHT22;12539;48.808;11.292;2022-08-21T08:43:32;23.50;93.90
24402;DHT22;12539;48.808;11.292;2022-08-21T08:46:03;23.70;94.00
24402;DHT22;12539;48.808;11.292;2022-08-21T08:54:06;24.10;93.40
24402;DHT22;12539;48.808;11.292;2022-08-21T08:56:34;24.10;93.00
24402;DHT22;12539;48.808;11.292;2022-08-21T08:59:07;24.10;93.10
24402;DHT22;12539;48.808;11.292;2022-08-21T09:01:34;24.10;92.50
24402;DHT22;12539;48.808;11.292;2022-08-21T09:03:59;24.10;92.40
24402;DHT22;12539;48.808;11.292;2022-08-21T09:06:43;24.10;92.80
24402;DHT22;12539;48.808;11.292;2022-08-21T09:15:36;24.10;92.80
24402;DHT22;12539;48.808;11.292;2022-08-21T09:18:11;24.20;93.00
24402;DHT22;12539;48.808;11.292;2022-08-21T09:28:36;25.00;91.80
24402;DHT22;12539;48.808;11.292;2022-08-21T09:31:06;25.00;91.30
24402;DHT22;12539;48.808;11.292;2022-08-21T09:33:32;24.90;91.30
24402;DHT22;12539;48.808;11.292;2022-08-21T09:35:57;24.80;91.40
24402;DHT22;12539;48.808;11.292;2022-08-21T09:38:31;24.80;91.60
24402;DHT22;12539;48.808;11.292;2022-08-21T09:41:01;24.90;91.30
24402;DHT22;12539;48.808;11.292;2022-08-21T09:43:27;24.90;91.10
24402;DHT22;12539;48.808;11.292;2022-08-21T09:48:28;24.80;91.00
24402;DHT22;12539;48.808;11.292;2022-08-21T09:51:13;24.70;91.30
24402;DHT22;12539;48.808;11.292;2022-08-21T09:53:44;24.60;91.30
24402;DHT22;12539;48.808;11.292;2022-08-21T09:56:26;24.40;91.20
24402;DHT22;12539;48.808;11.292;2022-08-21T09:59:15;24.30;91.60
24402;DHT22;12539;48.808;11.292;2022-08-21T10:01:48;24.30;92.00
24402;DHT22;12539;48.808;11.292;2022-08-21T10:04:15;24.30;92.10
24402;DHT22;12539;48.808;11.292;2022-08-21T10:06:44;24.40;91.90
24402;DHT22;12539;48.808;11.292;2022-08-21T10:09:13;24.50;91.80
24402;DHT22;12539;48.808;11.292;2022-08-21T10:11:46;24.70;91.40
24402;DHT22;12539;48.808;11.292;2022-08-21T10:14:40;25.00;90.60
24402;DHT22;12539;48.808;11.292;2022-08-21T10:20:23;25.40;88.30
24402;DHT22;12539;48.808;11.292;2022-08-21T10:26:02;25.40;87.60
24402;DHT22;12539;48.808;11.292;2022-08-21T10:28:59;25.20;86.80
24402;DHT22;12539;48.808;11.292;2022-08-21T10:40:34;24.80;86.60
24402;DHT22;12539;48.808;11.292;2022-08-21T10:44:05;24.60;87.20
24402;DHT22;12539;48.808;11.292;2022-08-21T10:46:30;24.50;88.20
24402;DHT22;12539;48.808;11.292;2022-08-21T10:49:23;24.30;88.90
24402;DHT22;12539;48.808;11.292;2022-08-21T10:52:02;24.30;89.40
24402;DHT22;12539;48.808;11.292;2022-08-21T10:57:18;24.20;89.00
24402;DHT22;12539;48.808;11.292;2022-08-21T10:59:59;24.20;89.30
24402;DHT22;12539;48.808;11.292;2022-08-21T11:02:31;24.10;87.90
24402;DHT22;12539;48.808;11.292;2022-08-21T11:05:19;24.20;88.60
24402;DHT22;12539;48.808;11.292;2022-08-21T11:07:55;24.20;88.60
24402;DHT22;12539;48.808;11.292;2022-08-21T11:10:29;24.20;87.60
24402;DHT22;12539;48.808;11.292;2022-08-21T11:13:15;24.20;86.90
24402;DHT22;12539;48.808;11.292;2022-08-21T11:16:23;24.30;86.60
24402;DHT22;12539;48.808;11.292;2022-08-21T11:24:32;24.50;86.70
24402;DHT22;12539;48.808;11.292;2022-08-21T11:30:07;24.80;83.80
24402;DHT22;12539;48.808;11.292;2022-08-21T11:38:27;25.10;82.40
24402;DHT22;12539;48.808;11.292;2022-08-21T11:52:18;25.50;78.60
24402;DHT22;12539;48.808;11.292;2022-08-21T11:54:51;25.40;75.50
24402;DHT22;12539;48.808;11.292;2022-08-21T12:00:31;25.10;72.50
24402;DHT22;12539;48.808;11.292;2022-08-21T12:02:43;25.00;71.70
24402;DHT22;12539;48.808;11.292;2022-08-21T12:05:33;24.90;70.90
24402;DHT22;12539;48.808;11.292;2022-08-21T12:08:27;24.90;69.10
24402;DHT22;12539;48.808;11.292;2022-08-21T12:16:32;24.60;69.70
24402;DHT22;12539;48.808;11.292;2022-08-21T12:21:54;24.50;71.20
24402;DHT22;12539;48.808;11.292;2022-08-21T12:24:37;24.60;70.90
24402;DHT22;12539;48.808;11.292;2022-08-21T12:29:52;24.50;67.20
24402;DHT22;12539;48.808;11.292;2022-08-21T12:32:41;24.40;67.40
24402;DHT22;12539;48.808;11.292;2022-08-21T12:35:17;24.30;68.60
24402;DHT22;12539;48.808;11.292;2022-08-21T12:37:47;24.30;67.90
24402;DHT22;12539;48.808;11.292;2022-08-21T12:42:45;24.20;69.10
24402;DHT22;12539;48.808;11.292;2022-08-21T12:45:36;24.20;69.00
24402;DHT22;12539;48.808;11.292;2022-08-21T12:51:31;24.30;66.00
24402;DHT22;12539;48.808;11.292;2022-08-21T12:53:59;24.30;66.20
24402;DHT22;12539;48.808;11.292;2022-08-21T12:56:31;24.30;67.60
24402;DHT22;12539;48.808;11.292;2022-08-21T12:59:04;24.30;67.80
24402;DHT22;12539;48.808;11.292;2022-08-21T13:01:31;24.40;68.70
24402;DHT22;12539;48.808;11.292;2022-08-21T13:04:04;24.40;68.20
24402;DHT22;12539;48.808;11.292;2022-08-21T13:06:38;24.50;68.50
24402;DHT22;12539;48.808;11.292;2022-08-21T13:09:10;24.60;66.30
24402;DHT22;12539;48.808;11.292;2022-08-21T13:11:36;24.70;62.90
24402;DHT22;12539;48.808;11.292;2022-08-21T13:14:03;24.70;61.30
24402;DHT22;12539;48.808;11.292;2022-08-21T13:16:30;24.70;60.80
24402;DHT22;12539;48.808;11.292;2022-08-21T13:19:01;24.70;59.00
24402;DHT22;12539;48.808;11.292;2022-08-21T13:21:34;24.80;60.10
24402;DHT22;12539;48.808;11.292;2022-08-21T13:24:17;24.80;61.30
24402;DHT22;12539;48.808;11.292;2022-08-21T13:26:43;24.80;61.90
24402;DHT22;12539;48.808;11.292;2022-08-21T13:29:15;24.80;62.00
24402;DHT22;12539;48.808;11.292;2022-08-21T13:31:47;24.80;59.90
24402;DHT22;12539;48.808;11.292;2022-08-21T13:34:14;24.80;60.00
24402;DHT22;12539;48.808;11.292;2022-08-21T13:36:42;24.80;60.50
24402;DHT22;12539;48.808;11.292;2022-08-21T13:39:12;24.80;59.60
24402;DHT22;12539;48.808;11.292;2022-08-21T13:41:41;24.90;59.50
24402;DHT22;12539;48.808;11.292;2022-08-21T13:44:17;24.90;58.00
24402;DHT22;12539;48.808;11.292;2022-08-21T13:46:44;25.00;57.50
24402;DHT22;12539;48.808;11.292;2022-08-21T13:49:10;25.00;57.50
24402;DHT22;12539;48.808;11.292;2022-08-21T13:51:39;25.10;58.20
24402;DHT22;12539;48.808;11.292;2022-08-21T13:54:26;25.20;56.90
24402;DHT22;12539;48.808;11.292;2022-08-21T13:56:53;25.30;56.50
24402;DHT22;12539;48.808;11.292;2022-08-21T13:59:30;25.30;57.00
24402;DHT22;12539;48.808;11.292;2022-08-21T14:02:12;25.40;57.00
24402;DHT22;12539;48.808;11.292;2022-08-21T14:04:53;25.50;57.30
24402;DHT22;12539;48.808;11.292;2022-08-21T14:07:36;25.60;57.30
24402;DHT22;12539;48.808;11.292;2022-08-21T14:10:15;25.60;57.50
24402;DHT22;12539;48.808;11.292;2022-08-21T14:12:47;25.60;57.50
24402;DHT22;12539;48.808;11.292;2022-08-21T14:15:15;25.40;58.20
24402;DHT22;12539;48.808;11.292;2022-08-21T14:17:42;25.30;58.60
24402;DHT22;12539;48.808;11.292;2022-08-21T14:20:29;25.20;59.20
24402;DHT22;12539;48.808;11.292;2022-08-21T14:22:55;25.20;57.60
24402;DHT22;12539;48.808;11.292;2022-08-21T14:27:54;25.10;57.80
24402;DHT22;12539;48.808;11.292;2022-08-21T14:32:54;25.10;60.00
24402;DHT22;12539;48.808;11.292;2022-08-21T14:35:21;25.10;59.70
24402;DHT22;12539;48.808;11.292;2022-08-21T14:37:48;25.20;58.40
24402;DHT22;12539;48.808;11.292;2022-08-21T14:40:16;25.30;55.70
24402;DHT22;12539;48.808;11.292;2022-08-21T14:42:43;25.40;56.00
24402;DHT22;12539;48.808;11.292;2022-08-21T14:45:23;25.50;56.00
24402;DHT22;12539;48.808;11.292;2022-08-21T14:47:51;25.60;55.30
24402;DHT22;12539;48.808;11.292;2022-08-21T14:50:17;25.50;56.60
24402;DHT22;12539;48.808;11.292;2022-08-21T14:52:43;25.60;56.80
24402;DHT22;12539;48.808;11.292;2022-08-21T14:55:11;25.50;57.40
24402;DHT22;12539;48.808;11.292;2022-08-21T14:57:47;25.60;57.00
24402;DHT22;12539;48.808;11.292;2022-08-21T15:00:15;25.40;56.20
24402;DHT22;12539;48.808;11.292;2022-08-21T15:02:43;25.30;56.10
24402;DHT22;12539;48.808;11.292;2022-08-21T15:05:08;25.20;55.20
24402;DHT22;12539;48.808;11.292;2022-08-21T15:07:35;25.10;55.60
24402;DHT22;12539;48.808;11.292;2022-08-21T15:10:01;25.10;56.40
24402;DHT22;12539;48.808;11.292;2022-08-21T15:12:26;25.10;55.70
24402;DHT22;12539;48.808;11.292;2022-08-21T15:14:52;25.20;56.60
24402;DHT22;12539;48.808;11.292;2022-08-21T15:17:21;25.10;56.90
24402;DHT22;12539;48.808;11.292;2022-08-21T15:19:47;25.20;56.40
24402;DHT22;12539;48.808;11.292;2022-08-21T15:22:13;25.10;54.40
24402;DHT22;12539;48.808;11.292;2022-08-21T15:24:39;25.10;55.20
24402;DHT22;12539;48.808;11.292;2022-08-21T15:27:06;25.10;55.60
24402;DHT22;12539;48.808;11.292;2022-08-21T15:29:33;25.00;56.80
24402;DHT22;12539;48.808;11.292;2022-08-21T15:32:02;25.00;56.20
24402;DHT22;12539;48.808;11.292;2022-08-21T15:34:30;25.00;54.80
24402;DHT22;12539;48.808;11.292;2022-08-21T15:36:57;25.00;55.40
24402;DHT22;12539;48.808;11.292;2022-08-21T15:39:25;25.00;55.20
24402;DHT22;12539;48.808;11.292;2022-08-21T15:41:52;25.00;55.30
24402;DHT22;12539;48.808;11.292;2022-08-21T15:44:18;25.00;54.60
24402;DHT22;12539;48.808;11.292;2022-08-21T15:46:44;25.00;53.40
24402;DHT22;12539;48.808;11.292;2022-08-21T15:49:10;24.90;54.30
24402;DHT22;12539;48.808;11.292;2022-08-21T15:51:36;24.90;55.00
24402;DHT22;12539;48.808;11.292;2022-08-21T15:54:03;24.90;54.70
24402;DHT22;12539;48.808;11.292;2022-08-21T15:56:37;24.90;54.90
24402;DHT22;12539;48.808;11.292;2022-08-21T15:59:15;24.90;56.40
24402;DHT22;12539;48.808;11.292;2022-08-21T16:01:42;24.90;56.60
24402;DHT22;12539;48.808;11.292;2022-08-21T16:04:09;24.80;56.30
24402;DHT22;12539;48.808;11.292;2022-08-21T16:06:35;24.80;56.20
24402;DHT22;12539;48.808;11.292;2022-08-21T16:09:01;24.80;56.50
24402;DHT22;12539;48.808;11.292;2022-08-21T16:11:27;24.80;56.70
24402;DHT22;12539;48.808;11.292;2022-08-21T16:13:53;24.80;56.60
24402;DHT22;12539;48.808;11.292;2022-08-21T16:16:21;24.70;56.60
24402;DHT22;12539;48.808;11.292;2022-08-21T16:18:48;24.70;57.40
24402;DHT22;12539;48.808;11.292;2022-08-21T16:21:15;24.70;58.00
24402;DHT22;12539;48.808;11.292;2022-08-21T16:23:40;24.60;56.70
24402;DHT22;12539;48.808;11.292;2022-08-21T16:26:08;24.60;56.80
24402;DHT22;12539;48.808;11.292;2022-08-21T16:28:36;24.60;56.70
24402;DHT22;12539;48.808;11.292;2022-08-21T16:31:03;24.60;56.90
24402;DHT22;12539;48.808;11.292;2022-08-21T16:33:34;24.60;57.80
24402;DHT22;12539;48.808;11.292;2022-08-21T16:36:02;24.60;57.50
24402;DHT22;12539;48.808;11.292;2022-08-21T16:38:29;24.50;57.80
24402;DHT22;12539;48.808;11.292;2022-08-21T16:40:58;24.50;58.80
24402;DHT22;12539;48.808;11.292;2022-08-21T16:43:27;24.50;60.40
24402;DHT22;12539;48.808;11.292;2022-08-21T16:45:54;24.50;60.20
24402;DHT22;12539;48.808;11.292;2022-08-21T16:48:21;24.50;60.60
24402;DHT22;12539;48.808;11.292;2022-08-21T16:50:47;24.50;60.80
24402;DHT22;12539;48.808;11.292;2022-08-21T16:53:13;24.40;60.40
24402;DHT22;12539;48.808;11.292;2022-08-21T16:55:39;24.40;62.00
24402;DHT22;12539;48.808;11.292;2022-08-21T16:58:10;24.40;62.00
24402;DHT22;12539;48.808;11.292;2022-08-21T17:00:37;24.40;60.80
24402;DHT22;12539;48.808;11.292;2022-08-21T17:03:03;24.40;61.80